Time;durP1;ratioP1;P1;durP2;ratioP2;P2;SDS_P1;SDS_P2;PMS_P1;PMS_P2;Temp;Humidity;BMP_temperature;BMP_pressure;BME280_temperature;BME280_humidity;BME280_pressure;Samples;Min_cycle;Max_cycle;Signal;HPM_P1;HPM_P2
2023/01/28 00:01:34;;;;;;;;;;;;;;;28.67;56.81;100923.72;5089370;27;65684;-33
2023/01/28 00:04:04;;;;;;;;;;;;;;;28.66;57.01;100927.44;5091113;27;70224;-34
2023/01/28 00:06:35;;;;;;;;;;;;;;;28.66;56.55;100922.06;5083441;27;66533;-34
2023/01/28 00:09:07;;;;;;;;;;;;;;;28.65;56.54;100937.41;5054931;27;70566;-34
2023/01/28 00:11:38;;;;;;;;;;;;;;;28.65;56.53;100925.78;5081491;27;66216;-35
2023/01/28 00:14:10;;;;;;;;;;;;;;;28.65;56.57;100937.41;5067430;27;69849;-34
2023/01/28 00:16:40;;;;;;;;;;;;;;;28.64;56.62;100938.47;5081914;27;66912;-33
2023/01/28 00:19:11;;;;;;;;;;;;;;;28.62;56.86;100942.41;5082935;27;70346;-33
2023/01/28 00:21:41;;;;;;;;;;;;;;;28.65;56.89;100942.00;5086050;27;66177;-33
2023/01/28 00:24:12;;;;;;;;;;;;;;;28.64;56.49;100943.00;5088809;27;70321;-34
2023/01/28 00:26:43;;;;;;;;;;;;;;;28.64;57.04;100951.09;5095449;27;66276;-34
2023/01/28 00:29:14;;;;;;;;;;;;;;;28.64;57.04;100948.41;5083870;27;69841;-34
2023/01/28 00:31:44;;;;;;;;;;;;;;;28.64;56.67;100951.09;5096176;27;67119;-34
2023/01/28 00:34:15;;;;;;;;;;;;;;;28.63;56.96;100946.75;5054317;28;70225;-33
2023/01/28 00:36:56;;;;;;;;;;;;;;;28.64;57.00;100951.09;5092705;27;67577;-34
2023/01/28 00:39:26;;;;;;;;;;;;;;;28.64;56.67;100953.81;5070275;27;70171;-34
2023/01/28 00:41:57;;;;;;;;;;;;;;;28.64;57.02;100959.19;5071997;27;66081;-33
2023/01/28 00:44:28;;;;;;;;;;;;;;;28.63;56.86;100958.38;5050606;27;69782;-34
2023/01/28 00:46:59;;;;;;;;;;;;;;;28.64;57.15;100961.91;5088526;27;66376;-33
2023/01/28 00:49:30;;;;;;;;;;;;;;;28.64;57.16;100967.28;5094370;27;69909;-34
2023/01/28 00:52:01;;;;;;;;;;;;;;;28.63;56.60;100965.66;5084313;27;66527;-34
2023/01/28 00:54:31;;;;;;;;;;;;;;;28.63;57.06;100968.34;5093387;27;70025;-34
2023/01/28 00:57:01;;;;;;;;;;;;;;;28.64;56.65;100978.09;5084666;27;66589;-34
2023/01/28 00:59:32;;;;;;;;;;;;;;;28.64;57.03;100975.41;5089305;27;70631;-33
2023/01/28 01:02:11;;;;;;;;;;;;;;;28.64;56.67;100972.69;5084138;27;66630;-34
2023/01/28 01:04:53;;;;;;;;;;;;;;;28.64;56.58;100978.09;5085825;27;69829;-33
2023/01/28 01:07:33;;;;;;;;;;;;;;;28.65;56.72;100979.78;5081796;27;66806;-34
2023/01/28 01:10:04;;;;;;;;;;;;;;;28.65;56.61;100980.59;5067053;27;70208;-33
2023/01/28 01:12:35;;;;;;;;;;;;;;;28.66;56.63;100984.13;5083076;27;65091;-34
2023/01/28 01:15:09;;;;;;;;;;;;;;;28.66;56.66;100993.06;5083755;27;70341;-35
2023/01/28 01:17:42;;;;;;;;;;;;;;;28.66;56.57;100993.06;5083176;27;66324;-33
2023/01/28 01:20:22;;;;;;;;;;;;;;;28.64;55.44;100994.28;5082312;27;70066;-32
2023/01/28 01:22:53;;;;;;;;;;;;;;;28.60;54.39;101007.38;5084602;27;65458;-32
2023/01/28 01:25:24;;;;;;;;;;;;;;;28.58;54.47;101006.72;5053195;27;70374;-34
2023/01/28 01:27:54;;;;;;;;;;;;;;;28.52;53.57;100997.56;5067438;27;66153;-32
2023/01/28 01:30:26;;;;;;;;;;;;;;;28.52;53.94;100994.88;5082388;27;68519;-34
2023/01/28 01:32:57;;;;;;;;;;;;;;;28.55;54.43;100995.50;5083759;27;66356;-38
2023/01/28 01:35:27;;;;;;;;;;;;;;;28.31;54.40;100959.09;5051171;27;70099;-35
2023/01/28 01:37:58;;;;;;;;;;;;;;;28.57;54.72;100998.84;5083440;27;67609;-35
2023/01/28 01:40:29;;;;;;;;;;;;;;;28.58;54.32;100989.72;5081453;27;70552;-34
2023/01/28 01:43:01;;;;;;;;;;;;;;;28.59;54.78;100994.09;5054100;27;65781;-35
2023/01/28 01:45:33;;;;;;;;;;;;;;;28.61;54.38;100994.69;5063548;27;69472;-35
2023/01/28 01:48:27;;;;;;;;;;;;;;;28.61;54.31;100994.69;5086878;27;66944;-35
2023/01/28 01:51:03;;;;;;;;;;;;;;;28.62;54.50;100996.38;5069667;27;70115;-35
2023/01/28 01:53:35;;;;;;;;;;;;;;;28.64;54.50;101002.38;5077130;27;66628;-35
2023/01/28 01:56:08;;;;;;;;;;;;;;;28.64;54.57;100988.88;5079709;27;70131;-35
2023/01/28 01:58:43;;;;;;;;;;;;;;;28.66;54.69;100997.63;5048724;27;66559;-36
2023/01/28 02:01:15;;;;;;;;;;;;;;;28.68;54.54;100995.56;5069097;27;70600;-34
2023/01/28 02:04:04;;;;;;;;;;;;;;;28.68;54.48;100988.28;5055613;27;66408;-35
2023/01/28 02:06:36;;;;;;;;;;;;;;;28.70;54.58;100993.50;5052687;27;70157;-35
2023/01/28 02:09:20;;;;;;;;;;;;;;;28.71;54.14;100995.97;5087308;27;65522;-35
2023/01/28 02:11:53;;;;;;;;;;;;;;;28.72;54.13;100986.00;5086293;27;70445;-36
2023/01/28 02:14:26;;;;;;;;;;;;;;;28.73;54.04;100988.53;5072121;27;65561;-35
2023/01/28 02:17:00;;;;;;;;;;;;;;;28.74;53.92;100983.94;5079511;27;70651;-35
2023/01/28 02:19:51;;;;;;;;;;;;;;;28.76;54.06;100984.59;5090446;27;65743;-34
2023/01/28 02:22:28;;;;;;;;;;;;;;;28.78;54.35;100990.63;5059193;27;69288;-35
2023/01/28 02:25:16;;;;;;;;;;;;;;;28.79;53.98;100986.88;5068743;27;65723;-35
2023/01/28 02:27:51;;;;;;;;;;;;;;;28.81;54.44;100982.13;5066497;28;69812;-35
2023/01/28 02:30:24;;;;;;;;;;;;;;;28.82;53.96;100983.75;5066904;27;64955;-35
2023/01/28 02:33:26;;;;;;;;;;;;;;;28.84;53.86;100979.00;5081733;27;70768;-35
2023/01/28 02:36:00;;;;;;;;;;;;;;;28.86;54.03;100970.69;5073790;27;65847;-35
2023/01/28 02:38:39;;;;;;;;;;;;;;;28.88;54.02;100969.44;5080922;27;68846;-35
2023/01/28 02:41:15;;;;;;;;;;;;;;;28.90;54.00;100972.78;5074676;27;65649;-33
2023/01/28 02:43:47;;;;;;;;;;;;;;;28.92;54.00;100978.81;5079322;27;70031;-34
2023/01/28 02:49:11;;;;;;;;;;;;;;;28.94;53.82;100974.03;5081000;27;69321;-34
2023/01/28 02:51:53;;;;;;;;;;;;;;;28.96;54.18;100963.84;5086286;27;66218;-35
2023/01/28 02:54:42;;;;;;;;;;;;;;;28.98;53.88;100969.06;5084301;27;69673;-34
2023/01/28 02:57:28;;;;;;;;;;;;;;;29.00;53.77;100963.44;5050250;28;66613;-37
2023/01/28 03:00:05;;;;;;;;;;;;;;;29.00;54.29;100963.44;5061799;27;70384;-34
2023/01/28 03:02:36;;;;;;;;;;;;;;;29.03;53.89;100955.81;5069406;27;65643;-36
2023/01/28 03:05:13;;;;;;;;;;;;;;;29.05;53.93;100958.28;5060370;28;69632;-35
2023/01/28 03:07:45;;;;;;;;;;;;;;;29.07;53.85;100945.41;5063014;27;65841;-35
2023/01/28 03:10:19;;;;;;;;;;;;;;;29.09;53.90;100946.88;5042757;28;70232;-34
2023/01/28 03:39:12;;;;;;;;;;;;;;;29.30;53.39;100928.78;5059430;28;70718;-36
2023/01/28 03:41:43;;;;;;;;;;;;;;;29.32;53.99;100926.72;5061005;28;65802;-35
2023/01/28 03:47:03;;;;;;;;;;;;;;;29.36;53.66;100923.41;5051077;28;66792;-35
2023/01/28 03:49:34;;;;;;;;;;;;;;;29.39;54.02;100922.13;5049611;27;69970;-36
2023/01/28 03:52:05;;;;;;;;;;;;;;;29.40;53.36;100900.31;5071181;27;66341;-35
2023/01/28 03:54:36;;;;;;;;;;;;;;;29.42;53.39;100899.25;5066451;27;70681;-34
2023/01/28 03:57:06;;;;;;;;;;;;;;;29.44;53.76;100908.81;5080911;27;66275;-34
2023/01/28 03:59:37;;;;;;;;;;;;;;;29.47;53.88;100903.00;5063679;27;70242;-37
2023/01/28 04:02:09;;;;;;;;;;;;;;;29.49;53.55;100900.09;5060545;28;66853;-35
2023/01/28 04:04:41;;;;;;;;;;;;;;;29.51;53.53;100895.31;5082225;27;69708;-35
2023/01/28 04:07:14;;;;;;;;;;;;;;;29.55;53.57;100888.44;5085293;27;66730;-37
2023/01/28 04:10:03;;;;;;;;;;;;;;;29.57;53.93;100886.34;5072813;27;70358;-35
2023/01/28 04:12:59;;;;;;;;;;;;;;;29.59;53.90;100886.97;5054576;27;65676;-34
2023/01/28 04:15:32;;;;;;;;;;;;;;;29.10;53.73;100805.38;5065039;28;70700;-37
2023/01/28 04:18:02;;;;;;;;;;;;;;;29.64;53.95;100876.38;5066793;27;66510;-35
2023/01/28 04:20:35;;;;;;;;;;;;;;;29.66;53.40;100865.34;5069767;27;69090;-36
2023/01/28 04:23:10;;;;;;;;;;;;;;;29.68;53.37;100866.81;5072254;27;65856;-35
2023/01/28 04:25:41;;;;;;;;;;;;;;;29.71;53.40;100855.56;5060463;27;69308;-34
2023/01/28 04:28:12;;;;;;;;;;;;;;;29.73;54.15;100853.50;5081773;27;66108;-35
2023/01/28 04:30:43;;;;;;;;;;;;;;;29.75;53.83;100835.16;5063714;27;70094;-35
2023/01/28 04:33:46;;;;;;;;;;;;;;;29.78;54.43;100828.50;5056134;27;66908;-37
2023/01/28 04:36:37;;;;;;;;;;;;;;;29.80;54.00;100832.66;5060586;27;69475;-38
2023/01/28 04:39:44;;;;;;;;;;;;;;;29.83;53.82;100831.38;5059461;28;65240;-34
2023/01/28 04:42:24;;;;;;;;;;;;;;;29.84;53.83;100817.66;5067057;28;70272;-35
2023/01/28 04:45:18;;;;;;;;;;;;;;;29.87;54.22;100805.59;5059629;27;65634;-37
2023/01/28 04:48:19;;;;;;;;;;;;;;;29.90;53.56;100804.34;5049494;28;70654;-36
2023/01/28 04:51:11;;;;;;;;;;;;;;;29.92;53.83;100804.94;5076300;27;65635;-35
2023/01/28 04:54:06;;;;;;;;;;;;;;;29.94;53.81;100800.97;5078397;28;70083;-34
2023/01/28 04:56:37;;;;;;;;;;;;;;;29.95;53.20;100797.25;5055867;27;65496;-34
2023/01/28 04:59:08;;;;;;;;;;;;;;;29.98;53.32;100787.88;5068363;27;69204;-34
2023/01/28 05:01:39;;;;;;;;;;;;;;;29.99;53.60;100781.41;5061200;27;66707;-34
2023/01/28 05:04:20;;;;;;;;;;;;;;;30.01;53.67;100779.31;5054855;28;69972;-33
2023/01/28 05:06:55;;;;;;;;;;;;;;;30.03;52.97;100772.66;5062325;28;65557;-35
2023/01/28 05:09:37;;;;;;;;;;;;;;;30.05;53.19;100770.53;5054328;27;70264;-35
2023/01/28 05:12:10;;;;;;;;;;;;;;;30.08;53.07;100765.75;5058031;28;66505;-36
2023/01/28 05:14:47;;;;;;;;;;;;;;;30.09;52.65;100764.69;5062538;27;70565;-37
2023/01/28 05:17:20;;;;;;;;;;;;;;;30.09;52.76;100754.72;5058158;27;66683;-35
2023/01/28 05:19:51;;;;;;;;;;;;;;;30.11;52.82;100751.78;5061924;28;69548;-34
2023/01/28 05:22:32;;;;;;;;;;;;;;;30.12;52.69;100751.56;5056320;27;65788;-35
2023/01/28 05:25:27;;;;;;;;;;;;;;;30.14;52.74;100746.75;5053745;28;70198;-35
2023/01/28 05:27:58;;;;;;;;;;;;;;;30.15;53.37;100748.44;5062191;27;65910;-35
2023/01/28 05:30:32;;;;;;;;;;;;;;;30.17;52.81;100740.94;5061137;27;70341;-34
2023/01/28 05:33:05;;;;;;;;;;;;;;;30.18;53.43;100729.03;5050086;28;66102;-34
2023/01/28 05:35:37;;;;;;;;;;;;;;;30.19;53.04;100722.56;5063485;27;69163;-34
2023/01/28 05:38:11;;;;;;;;;;;;;;;30.21;53.00;100725.91;5083425;27;66727;-34
2023/01/28 05:40:43;;;;;;;;;;;;;;;30.22;53.57;100716.75;5065809;27;70527;-35
2023/01/28 05:43:17;;;;;;;;;;;;;;;29.92;53.58;100672.41;5057025;28;66701;-35
2023/01/28 05:46:08;;;;;;;;;;;;;;;30.25;53.43;100716.31;5051920;27;69825;-35
2023/01/28 05:49:11;;;;;;;;;;;;;;;30.27;53.58;100703.41;5089992;27;65975;-36
2023/01/28 05:52:00;;;;;;;;;;;;;;;30.30;53.65;100693.19;5069882;27;69356;-36
2023/01/28 05:54:35;;;;;;;;;;;;;;;30.32;53.28;100699.22;5068764;27;66332;-34
2023/01/28 05:57:16;;;;;;;;;;;;;;;30.34;53.67;100691.69;5060550;28;70346;-35
2023/01/28 05:59:49;;;;;;;;;;;;;;;30.34;53.48;100686.28;5084343;27;66501;-34
2023/01/28 06:02:20;;;;;;;;;;;;;;;30.38;52.99;100690.22;5068624;27;70153;-37
2023/01/28 06:04:57;;;;;;;;;;;;;;;30.39;52.93;100670.22;5056582;28;66227;-36
2023/01/28 06:07:34;;;;;;;;;;;;;;;30.43;52.96;100668.72;5059954;27;70607;-36
2023/01/28 06:10:25;;;;;;;;;;;;;;;30.44;53.44;100660.38;5028806;28;66456;-34
2023/01/28 06:12:58;;;;;;;;;;;;;;;30.47;52.96;100656.38;5063052;28;70574;-34
2023/01/28 06:15:56;;;;;;;;;;;;;;;30.48;53.63;100656.19;5059862;28;66289;-35
2023/01/28 06:18:47;;;;;;;;;;;;;;;30.50;53.14;100661.34;5080008;27;70401;-36
2023/01/28 06:21:18;;;;;;;;;;;;;;;30.52;53.24;100656.56;5080578;28;65548;-36
2023/01/28 06:23:51;;;;;;;;;;;;;;;30.55;53.32;100656.09;5066003;27;69932;-35
2023/01/28 06:26:28;;;;;;;;;;;;;;;30.56;53.21;100652.34;5063191;27;65438;-35
2023/01/28 06:28:58;;;;;;;;;;;;;;;30.59;53.15;100646.50;5061661;28;69993;-36
2023/01/28 06:31:35;;;;;;;;;;;;;;;30.61;53.20;100643.56;5076956;27;67070;-36
2023/01/28 06:34:05;;;;;;;;;;;;;;;30.61;53.14;100628.13;5084920;27;70132;-36
2023/01/28 06:36:39;;;;;;;;;;;;;;;30.64;52.88;100622.25;5080644;27;67131;-35
2023/01/28 06:39:10;;;;;;;;;;;;;;;30.67;53.15;100627.25;5083073;27;70378;-35
2023/01/28 06:41:40;;;;;;;;;;;;;;;30.69;53.11;100619.72;5064395;27;65285;-35
2023/01/28 06:44:11;;;;;;;;;;;;;;;30.72;52.89;100621.97;5083294;27;69882;-34
2023/01/28 06:46:46;;;;;;;;;;;;;;;30.75;52.73;100611.75;5079725;27;65528;-35
2023/01/28 06:49:20;;;;;;;;;;;;;;;30.78;52.36;100616.72;5065296;28;70433;-35
2023/01/28 06:51:51;;;;;;;;;;;;;;;30.80;52.85;100620.06;5048411;28;65257;-35
2023/01/28 06:54:22;;;;;;;;;;;;;;;30.82;52.37;100607.13;5078057;28;70045;-37
2023/01/28 06:57:12;;;;;;;;;;;;;;;30.84;52.24;100610.41;5080894;27;65557;-35
2023/01/28 06:59:46;;;;;;;;;;;;;;;30.86;52.07;100611.84;5075450;27;70508;-39
2023/01/28 07:02:25;;;;;;;;;;;;;;;30.89;52.36;100607.84;5081372;27;66634;-36
2023/01/28 07:04:56;;;;;;;;;;;;;;;30.91;51.96;100597.63;5065148;27;71488;-36
2023/01/28 07:07:27;;;;;;;;;;;;;;;30.92;52.53;100599.28;5063280;28;66228;-35
2023/01/28 07:10:03;;;;;;;;;;;;;;;30.95;51.73;100596.09;5059772;27;70301;-36
2023/01/28 07:12:34;;;;;;;;;;;;;;;30.96;52.06;100595.06;5079608;27;66984;-36
2023/01/28 07:15:09;;;;;;;;;;;;;;;30.99;52.17;100599.22;5081880;27;69285;-35
2023/01/28 07:17:41;;;;;;;;;;;;;;;31.00;52.06;100593.53;5074816;27;65454;-35
2023/01/28 07:20:13;;;;;;;;;;;;;;;31.02;51.85;100591.44;5076829;27;69804;-39
2023/01/28 07:22:45;;;;;;;;;;;;;;;30.77;52.08;100555.50;5063075;28;66992;-36
2023/01/28 07:25:18;;;;;;;;;;;;;;;31.05;52.37;100588.28;5089225;27;70555;-34
2023/01/28 07:27:51;;;;;;;;;;;;;;;31.06;51.55;100587.22;5076739;27;65422;-35
2023/01/28 07:30:24;;;;;;;;;;;;;;;31.07;51.67;100583.47;5072477;27;71103;-35
2023/01/28 07:32:55;;;;;;;;;;;;;;;31.09;51.26;100570.53;5077903;27;66145;-34
2023/01/28 07:35:26;;;;;;;;;;;;;;;31.13;51.15;100576.31;5079870;27;70268;-35
2023/01/28 07:37:58;;;;;;;;;;;;;;;31.20;48.92;100576.19;5082912;27;65646;-35
2023/01/28 07:40:29;;;;;;;;;;;;;;;31.14;48.83;100577.94;5080177;27;69848;-36
2023/01/28 07:43:00;;;;;;;;;;;;;;;31.18;49.48;100573.75;5082250;27;66990;-35
2023/01/28 07:45:37;;;;;;;;;;;;;;;31.24;50.00;100572.00;5062794;28;70356;-36
2023/01/28 07:48:09;;;;;;;;;;;;;;;31.26;50.27;100567.16;5080734;27;66760;-35
2023/01/28 07:50:42;;;;;;;;;;;;;;;31.29;50.46;100564.00;5079275;27;69904;-35
2023/01/28 07:53:13;;;;;;;;;;;;;;;31.31;50.14;100570.81;5080729;27;65423;-34
2023/01/28 07:55:44;;;;;;;;;;;;;;;31.31;50.03;100573.53;5081515;27;68935;-37
2023/01/28 07:58:14;;;;;;;;;;;;;;;31.33;50.06;100576.03;5079867;27;65894;-36
2023/01/28 08:00:46;;;;;;;;;;;;;;;31.33;50.37;100582.25;5079266;27;70276;-34
2023/01/28 08:03:17;;;;;;;;;;;;;;;31.34;50.16;100572.25;5084352;27;67090;-36
2023/01/28 08:05:52;;;;;;;;;;;;;;;31.33;50.38;100576.84;5079001;27;70503;-35
2023/01/28 08:08:23;;;;;;;;;;;;;;;31.34;50.34;100575.81;5087129;27;66511;-36
2023/01/28 08:10:54;;;;;;;;;;;;;;;31.34;50.68;100577.66;5087586;27;69194;-34
2023/01/28 08:13:24;;;;;;;;;;;;;;;31.35;50.54;100568.50;5085156;27;67017;-36
2023/01/28 08:15:55;;;;;;;;;;;;;;;31.36;50.58;100572.88;5086780;27;70332;-36
2023/01/28 08:18:26;;;;;;;;;;;;;;;31.36;50.52;100567.47;5084444;27;66838;-37
2023/01/28 08:20:57;;;;;;;;;;;;;;;31.37;50.86;100571.81;5082074;27;70533;-35
2023/01/28 08:23:29;;;;;;;;;;;;;;;31.37;51.01;100567.25;5070135;28;65738;-35
2023/01/28 08:26:00;;;;;;;;;;;;;;;31.39;51.04;100569.69;5080902;27;70795;-40
2023/01/28 08:28:31;;;;;;;;;;;;;;;31.39;50.91;100572.41;5064797;28;66153;-38
2023/01/28 08:31:02;;;;;;;;;;;;;;;31.39;50.94;100580.53;5084883;27;70800;-38
2023/01/28 08:33:33;;;;;;;;;;;;;;;31.39;50.80;100580.53;5054479;27;67233;-36
2023/01/28 08:36:03;;;;;;;;;;;;;;;31.41;51.05;100583.84;5082911;27;69754;-36
2023/01/28 08:38:35;;;;;;;;;;;;;;;31.38;51.13;100584.31;5044776;27;67122;-35
2023/01/28 08:41:05;;;;;;;;;;;;;;;31.41;51.42;100583.03;5079213;27;68335;-35
2023/01/28 08:43:36;;;;;;;;;;;;;;;31.42;51.23;100580.06;5081045;27;66437;-35
2023/01/28 08:46:06;;;;;;;;;;;;;;;31.42;50.84;100584.69;5080101;27;70224;-34
2023/01/28 08:48:37;;;;;;;;;;;;;;;31.42;50.87;100590.91;5078962;27;66855;-35
2023/01/28 08:51:07;;;;;;;;;;;;;;;31.43;50.53;100591.78;5076232;28;69824;-34
2023/01/28 08:53:41;;;;;;;;;;;;;;;31.22;50.68;100565.97;5083183;27;60058;-37
2023/01/28 08:56:13;;;;;;;;;;;;;;;31.43;50.85;100587.16;5080277;27;70400;-34
2023/01/28 08:58:43;;;;;;;;;;;;;;;31.43;50.50;100587.16;5080991;27;65614;-35
2023/01/28 09:01:14;;;;;;;;;;;;;;;31.42;50.54;100590.91;5052296;28;70134;-34
2023/01/28 09:03:45;;;;;;;;;;;;;;;31.44;50.31;100609.69;5082005;27;65584;-35
2023/01/28 09:06:16;;;;;;;;;;;;;;;31.41;50.28;100592.00;5078515;27;70027;-35
2023/01/28 09:08:46;;;;;;;;;;;;;;;31.43;50.55;100597.19;5078604;27;66974;-35
2023/01/28 09:11:17;;;;;;;;;;;;;;;31.41;50.60;100600.13;5075757;27;69740;-35
2023/01/28 09:13:48;;;;;;;;;;;;;;;31.42;50.31;100599.06;5081070;27;66593;-35
2023/01/28 09:16:18;;;;;;;;;;;;;;;31.41;50.46;100608.25;5082133;27;71171;-35
2023/01/28 09:18:50;;;;;;;;;;;;;;;31.40;50.46;100606.59;5091233;27;66641;-35
2023/01/28 09:21:21;;;;;;;;;;;;;;;31.40;50.37;100603.91;5061547;27;69856;-34
2023/01/28 09:23:55;;;;;;;;;;;;;;;31.40;50.21;100614.75;5076783;28;66508;-35
2023/01/28 09:26:26;;;;;;;;;;;;;;;31.39;50.27;100608.47;5081765;27;69106;-34
2023/01/28 09:29:00;;;;;;;;;;;;;;;31.39;50.45;100619.31;5075526;28;65437;-35
2023/01/28 09:31:30;;;;;;;;;;;;;;;31.39;50.52;100621.19;5057000;27;69633;-35
2023/01/28 09:34:04;;;;;;;;;;;;;;;31.38;50.39;100630.41;5082319;27;66137;-34
2023/01/28 09:36:35;;;;;;;;;;;;;;;31.39;50.21;100634.75;5082600;27;70535;-36
2023/01/28 09:39:07;;;;;;;;;;;;;;;31.37;50.54;100631.44;5082359;27;67088;-37
2023/01/28 09:41:43;;;;;;;;;;;;;;;31.37;50.12;100644.97;5071937;27;69856;-36
2023/01/28 09:44:23;;;;;;;;;;;;;;;31.38;50.15;100652.09;5074474;27;66226;-34
2023/01/28 09:47:00;;;;;;;;;;;;;;;31.36;50.21;100656.91;5078144;27;70709;-34
2023/01/28 09:49:38;;;;;;;;;;;;;;;31.36;50.23;100646.06;5066578;27;66108;-35
2023/01/28 09:52:14;;;;;;;;;;;;;;;31.34;51.00;100648.13;5076491;27;70505;-35
2023/01/28 09:54:54;;;;;;;;;;;;;;;31.34;51.10;100653.53;5081667;27;66026;-37
2023/01/28 09:57:29;;;;;;;;;;;;;;;31.34;50.96;100670.66;5070171;27;69805;-36
2023/01/28 10:00:01;;;;;;;;;;;;;;;31.34;50.62;100667.09;5080064;27;66088;-36
2023/01/28 10:02:57;;;;;;;;;;;;;;;31.33;51.10;100679.81;5062864;28;70426;-35
2023/01/28 10:05:27;;;;;;;;;;;;;;;31.32;51.13;100677.38;5069712;28;65155;-36
2023/01/28 10:07:58;;;;;;;;;;;;;;;31.32;51.33;100682.78;5079603;27;69314;-35
2023/01/28 10:10:32;;;;;;;;;;;;;;;31.32;51.47;100693.63;5079659;27;66641;-35
2023/01/28 10:13:05;;;;;;;;;;;;;;;31.31;51.05;100702.78;5076632;27;69658;-35
2023/01/28 10:15:52;;;;;;;;;;;;;;;31.31;51.25;100708.22;5071614;27;66274;-35
2023/01/28 10:18:46;;;;;;;;;;;;;;;31.30;51.83;100706.56;5094629;27;69908;-36
2023/01/28 10:21:32;;;;;;;;;;;;;;;31.29;52.23;100715.75;5031710;27;66202;-34
2023/01/28 10:24:06;;;;;;;;;;;;;;;31.28;53.70;100724.94;5083321;27;70605;-33
2023/01/28 10:26:39;;;;;;;;;;;;;;;31.26;54.35;100727.03;5083238;27;66374;-35
2023/01/28 10:29:21;;;;;;;;;;;;;;;31.26;54.94;100732.44;5084203;27;70747;-35
2023/01/28 10:31:53;;;;;;;;;;;;;;;31.25;54.76;100737.03;5087307;27;66905;-35
2023/01/28 10:34:24;;;;;;;;;;;;;;;31.23;54.91;100735.63;5083194;27;69717;-35
2023/01/28 10:36:56;;;;;;;;;;;;;;;31.20;56.25;100738.78;5079165;27;65963;-33
2023/01/28 10:39:27;;;;;;;;;;;;;;;31.19;56.49;100745.25;5058863;28;69319;-34
2023/01/28 10:41:58;;;;;;;;;;;;;;;31.15;57.32;100748.44;5080026;27;66597;-35
2023/01/28 10:44:35;;;;;;;;;;;;;;;31.14;57.63;100756.78;5082355;27;70898;-38
2023/01/28 10:47:12;;;;;;;;;;;;;;;31.12;57.33;100756.16;5082334;27;66852;-34
2023/01/28 10:49:48;;;;;;;;;;;;;;;31.07;57.23;100762.28;5083433;27;70240;-34
2023/01/28 10:52:19;;;;;;;;;;;;;;;31.02;57.26;100759.41;5083894;27;66678;-34
2023/01/28 10:54:58;;;;;;;;;;;;;;;31.03;57.52;100766.47;5077304;27;69974;-35
2023/01/28 10:57:29;;;;;;;;;;;;;;;30.98;57.87;100774.47;5084289;27;65666;-34
2023/01/28 11:00:21;;;;;;;;;;;;;;;31.00;57.71;100783.16;5080994;27;70249;-35
2023/01/28 11:02:53;;;;;;;;;;;;;;;30.94;58.17;100789.47;5084618;27;66897;-33
2023/01/28 11:05:28;;;;;;;;;;;;;;;30.92;57.82;100805.13;5082545;27;70188;-34
2023/01/28 11:08:15;;;;;;;;;;;;;;;30.89;57.79;100813.69;5079829;27;66679;-35
2023/01/28 11:10:47;;;;;;;;;;;;;;;30.87;58.08;100804.94;5073962;27;69109;-36
2023/01/28 11:13:18;;;;;;;;;;;;;;;30.91;57.82;100817.03;5079772;27;66351;-35
2023/01/28 11:15:49;;;;;;;;;;;;;;;30.84;58.38;100822.50;5085482;27;70159;-36
2023/01/28 11:18:26;;;;;;;;;;;;;;;30.81;58.80;100831.03;5080510;27;66435;-36
2023/01/28 11:20:58;;;;;;;;;;;;;;;30.81;58.50;100828.34;5080996;27;70626;-36
2023/01/28 11:23:40;;;;;;;;;;;;;;;30.81;58.68;100839.16;5080168;27;66373;-35
2023/01/28 11:26:34;;;;;;;;;;;;;;;30.81;58.45;100832.94;5064376;28;70061;-34
2023/01/28 11:29:05;;;;;;;;;;;;;;;30.85;58.48;100850.41;5081678;27;66284;-35
2023/01/28 11:31:45;;;;;;;;;;;;;;;30.86;58.40;100838.50;5080486;27;69889;-35
2023/01/28 11:34:17;;;;;;;;;;;;;;;30.86;58.43;100846.66;5082044;27;66427;-35
2023/01/28 11:36:52;;;;;;;;;;;;;;;30.82;58.62;100848.97;5092895;27;70621;-36
2023/01/28 11:39:28;;;;;;;;;;;;;;;30.82;58.49;100845.44;5082444;27;66616;-35
2023/01/28 11:42:12;;;;;;;;;;;;;;;30.85;58.25;100839.56;5082336;27;69892;-35
2023/01/28 11:44:43;;;;;;;;;;;;;;;30.82;58.66;100845.44;5084102;27;66297;-35
2023/01/28 11:47:20;;;;;;;;;;;;;;;30.82;58.44;100846.25;5079846;27;71025;-35
2023/01/28 11:49:50;;;;;;;;;;;;;;;30.80;58.92;100850.25;5084057;27;66462;-38
2023/01/28 11:52:33;;;;;;;;;;;;;;;30.77;58.80;100848.75;5087162;27;70145;-36
2023/01/28 11:55:42;;;;;;;;;;;;;;;30.74;58.55;100843.78;5085172;27;66496;-36
2023/01/28 11:58:29;;;;;;;;;;;;;;;30.75;59.12;100850.03;5080292;27;69916;-35
2023/01/28 12:01:16;;;;;;;;;;;;;;;30.73;59.16;100852.97;5073016;27;66547;-35
2023/01/28 12:03:56;;;;;;;;;;;;;;;30.71;58.95;100861.31;5082021;27;69314;-35
2023/01/28 12:06:52;;;;;;;;;;;;;;;30.69;58.83;100859.88;5077479;27;66083;-38
2023/01/28 12:09:34;;;;;;;;;;;;;;;30.69;58.96;100868.00;5079254;27;69880;-40
2023/01/28 12:12:19;;;;;;;;;;;;;;;30.66;59.13;100871.97;5079897;27;65665;-35
2023/01/28 12:15:05;;;;;;;;;;;;;;;30.66;59.19;100874.66;5076946;27;70089;-38
2023/01/28 12:17:53;;;;;;;;;;;;;;;30.64;59.23;100874.06;5081097;27;66511;-35
2023/01/28 12:20:24;;;;;;;;;;;;;;;30.63;59.71;100875.13;5051472;27;70799;-36
2023/01/28 12:23:01;;;;;;;;;;;;;;;30.64;59.61;100876.75;5085167;27;65879;-35
2023/01/28 12:25:38;;;;;;;;;;;;;;;30.62;59.31;100884.28;5075472;27;70875;-37
2023/01/28 12:28:29;;;;;;;;;;;;;;;30.61;59.53;100882.63;5066197;28;66464;-37
2023/01/28 12:31:12;;;;;;;;;;;;;;;30.61;59.79;100885.31;5073860;27;69323;-37
2023/01/28 12:33:53;;;;;;;;;;;;;;;30.61;59.23;100893.44;5082323;27;66440;-37
2023/01/28 12:36:43;;;;;;;;;;;;;;;30.60;59.13;100894.50;5083926;27;69687;-37
2023/01/28 12:39:32;;;;;;;;;;;;;;;30.58;59.58;100899.28;5075546;27;66675;-37
2023/01/28 12:42:09;;;;;;;;;;;;;;;30.57;59.16;100911.19;5077699;27;69430;-37
2023/01/28 12:44:46;;;;;;;;;;;;;;;30.55;58.69;100907.84;5077813;27;66444;-36
2023/01/28 12:47:26;;;;;;;;;;;;;;;30.55;58.87;100915.16;5061227;28;69595;-36
2023/01/28 12:50:03;;;;;;;;;;;;;;;30.53;59.01;100918.06;5080313;27;66336;-39
2023/01/28 12:52:38;;;;;;;;;;;;;;;30.51;58.79;100933.72;5076212;27;69972;-41
2023/01/28 12:55:22;;;;;;;;;;;;;;;30.48;58.61;100932.28;5079518;27;66351;-37
2023/01/28 12:57:57;;;;;;;;;;;;;;;30.48;58.42;100926.03;5055382;27;70446;-36
2023/01/28 13:00:33;;;;;;;;;;;;;;;30.46;58.48;100928.13;5064653;27;65602;-37
2023/01/28 13:03:07;;;;;;;;;;;;;;;30.45;58.07;100934.56;5059792;27;70252;-38
2023/01/28 13:05:42;;;;;;;;;;;;;;;30.44;58.08;100935.63;5053359;28;67234;-37
2023/01/28 13:08:24;;;;;;;;;;;;;;;30.42;57.66;100938.56;5077784;27;70076;-37
2023/01/28 13:10:56;;;;;;;;;;;;;;;30.43;58.06;100947.50;5079505;27;65711;-38
2023/01/28 13:13:35;;;;;;;;;;;;;;;30.43;57.12;100950.19;5083626;27;69630;-37
2023/01/28 13:16:07;;;;;;;;;;;;;;;30.35;57.71;100942.34;5079497;27;66768;-37
2023/01/28 13:18:44;;;;;;;;;;;;;;;30.39;57.00;100938.13;5074228;27;69506;-38
2023/01/28 13:21:24;;;;;;;;;;;;;;;30.42;56.94;100943.97;5086289;27;66611;-38
2023/01/28 13:24:02;;;;;;;;;;;;;;;30.43;56.36;100953.75;5055696;28;70269;-38
2023/01/28 13:26:42;;;;;;;;;;;;;;;30.43;56.28;100944.78;5076929;27;66322;-40
2023/01/28 13:29:13;;;;;;;;;;;;;;;30.43;56.57;100947.50;5078325;27;70326;-37
2023/01/28 13:31:45;;;;;;;;;;;;;;;30.42;56.33;100949.38;5077110;27;66656;-39
2023/01/28 13:34:31;;;;;;;;;;;;;;;30.42;56.10;100952.09;5058255;28;69872;-38
2023/01/28 13:37:02;;;;;;;;;;;;;;;30.41;56.02;100957.69;5066658;27;66483;-37
2023/01/28 13:39:35;;;;;;;;;;;;;;;30.41;55.46;100968.53;5074179;27;70335;-37
2023/01/28 13:42:21;;;;;;;;;;;;;;;30.40;55.74;100972.28;5066713;27;66549;-39
2023/01/28 13:44:52;;;;;;;;;;;;;;;30.37;55.47;100978.09;5075353;27;70910;-38
2023/01/28 13:47:32;;;;;;;;;;;;;;;30.36;55.14;100976.47;5058437;28;65193;-37
2023/01/28 13:50:05;;;;;;;;;;;;;;;30.35;54.57;100974.81;5075148;27;70549;-41
2023/01/28 13:52:50;;;;;;;;;;;;;;;30.34;54.57;100973.13;5077024;27;66014;-38